sensor_id;sensor_type;location;lat;lon;timestamp;pressure;altitude;pressure_sealevel;temperature;humidity
27705;BME280;15109;50.992;6.918;2022-12-07T00:01:14;101148.91;;;5.84;100.00
27705;BME280;15109;50.992;6.918;2022-12-07T00:04:35;101147.91;;;5.85;100.00
27705;BME280;15109;50.992;6.918;2022-12-07T00:07:56;101150.75;;;5.84;100.00
27705;BME280;15109;50.992;6.918;2022-12-07T00:11:19;101146.06;;;5.86;100.00
27705;BME280;15109;50.992;6.918;2022-12-07T00:14:40;101153.63;;;5.82;100.00
27705;BME280;15109;50.992;6.918;2022-12-07T00:18:01;101151.50;;;5.76;100.00
27705;BME280;15109;50.992;6.918;2022-12-07T00:21:24;101156.47;;;5.71;100.00
27705;BME280;15109;50.992;6.918;2022-12-07T00:24:49;101139.91;;;5.74;100.00
27705;BME280;15109;50.992;6.918;2022-12-07T00:28:10;101141.31;;;5.78;100.00
27705;BME280;15109;50.992;6.918;2022-12-07T00:31:35;101129.47;;;5.79;100.00
27705;BME280;15109;50.992;6.918;2022-12-07T00:34:59;101135.34;;;5.75;100.00
27705;BME280;15109;50.992;6.918;2022-12-07T00:38:20;101135.75;;;5.80;100.00
27705;BME280;15109;50.992;6.918;2022-12-07T00:41:41;101129.22;;;5.82;100.00
27705;BME280;15109;50.992;6.918;2022-12-07T00:45:03;101126.50;;;5.82;100.00
27705;BME280;15109;50.992;6.918;2022-12-07T00:48:24;101131.94;;;5.82;100.00
27705;BME280;15109;50.992;6.918;2022-12-07T00:51:48;101127.19;;;5.84;100.00
27705;BME280;15109;50.992;6.918;2022-12-07T00:55:09;101123.63;;;5.84;100.00
27705;BME280;15109;50.992;6.918;2022-12-07T00:58:30;101128.19;;;5.83;100.00
27705;BME280;15109;50.992;6.918;2022-12-07T01:01:51;101127.94;;;5.86;100.00
27705;BME280;15109;50.992;6.918;2022-12-07T01:05:12;101133.38;;;5.86;100.00
27705;BME280;15109;50.992;6.918;2022-12-07T01:08:33;101125.34;;;5.85;100.00
27705;BME280;15109;50.992;6.918;2022-12-07T01:11:54;101126.19;;;5.85;100.00
27705;BME280;15109;50.992;6.918;2022-12-07T01:15:15;101118.50;;;5.81;100.00
27705;BME280;15109;50.992;6.918;2022-12-07T01:18:37;101120.47;;;5.79;100.00
27705;BME280;15109;50.992;6.918;2022-12-07T01:21:58;101127.31;;;5.83;100.00
27705;BME280;15109;50.992;6.918;2022-12-07T01:25:19;101134.47;;;5.84;100.00
27705;BME280;15109;50.992;6.918;2022-12-07T01:28:40;101134.03;;;5.79;100.00
27705;BME280;15109;50.992;6.918;2022-12-07T01:32:01;101134.22;;;5.77;100.00
27705;BME280;15109;50.992;6.918;2022-12-07T01:35:22;101129.78;;;5.76;100.00
27705;BME280;15109;50.992;6.918;2022-12-07T01:38:45;101130.78;;;5.75;100.00
27705;BME280;15109;50.992;6.918;2022-12-07T01:42:10;101131.22;;;5.71;100.00
27705;BME280;15109;50.992;6.918;2022-12-07T01:45:38;101129.78;;;5.76;100.00
27705;BME280;15109;50.992;6.918;2022-12-07T01:49:00;101129.06;;;5.74;100.00
27705;BME280;15109;50.992;6.918;2022-12-07T01:52:31;101121.63;;;5.76;100.00
27705;BME280;15109;50.992;6.918;2022-12-07T01:55:58;101116.09;;;5.78;100.00
27705;BME280;15109;50.992;6.918;2022-12-07T01:59:21;101114.63;;;5.74;100.00
27705;BME280;15109;50.992;6.918;2022-12-07T02:02:54;101105.50;;;5.75;100.00
27705;BME280;15109;50.992;6.918;2022-12-07T02:06:19;101104.06;;;5.71;100.00
27705;BME280;15109;50.992;6.918;2022-12-07T02:09:42;101110.94;;;5.75;100.00
27705;BME280;15109;50.992;6.918;2022-12-07T02:16:46;101105.94;;;5.70;100.00
27705;BME280;15109;50.992;6.918;2022-12-07T02:31:03;101102.94;;;5.73;100.00
27705;BME280;15109;50.992;6.918;2022-12-07T02:34:32;101098.81;;;5.69;100.00
27705;BME280;15109;50.992;6.918;2022-12-07T02:38:00;101091.56;;;5.60;100.00
27705;BME280;15109;50.992;6.918;2022-12-07T02:41:28;101091.13;;;5.65;100.00
27705;BME280;15109;50.992;6.918;2022-12-07T02:44:50;101098.97;;;5.68;100.00
27705;BME280;15109;50.992;6.918;2022-12-07T02:48:15;101093.09;;;5.72;100.00
27705;BME280;15109;50.992;6.918;2022-12-07T02:51:45;101091.25;;;5.73;100.00
27705;BME280;15109;50.992;6.918;2022-12-07T02:55:08;101098.09;;;5.77;100.00
27705;BME280;15109;50.992;6.918;2022-12-07T02:58:42;101101.06;;;5.74;100.00
27705;BME280;15109;50.992;6.918;2022-12-07T03:06:10;101092.09;;;5.73;100.00
27705;BME280;15109;50.992;6.918;2022-12-07T03:09:39;101100.94;;;5.75;100.00
27705;BME280;15109;50.992;6.918;2022-12-07T03:16:43;101107.94;;;5.78;100.00
27705;BME280;15109;50.992;6.918;2022-12-07T03:20:11;101106.22;;;5.77;100.00
27705;BME280;15109;50.992;6.918;2022-12-07T03:23:35;101093.78;;;5.74;100.00
27705;BME280;15109;50.992;6.918;2022-12-07T03:27:18;101101.94;;;5.74;100.00
27705;BME280;15109;50.992;6.918;2022-12-07T03:30:45;101104.38;;;5.77;100.00
27705;BME280;15109;50.992;6.918;2022-12-07T03:34:21;101096.06;;;5.79;100.00
27705;BME280;15109;50.992;6.918;2022-12-07T03:41:31;101096.38;;;5.76;100.00
27705;BME280;15109;50.992;6.918;2022-12-07T03:44:54;101090.63;;;5.79;100.00
27705;BME280;15109;50.992;6.918;2022-12-07T03:48:31;101096.06;;;5.79;100.00
27705;BME280;15109;50.992;6.918;2022-12-07T03:52:26;101096.22;;;5.77;100.00
27705;BME280;15109;50.992;6.918;2022-12-07T03:55:51;101098.78;;;5.79;100.00
27705;BME280;15109;50.992;6.918;2022-12-07T03:59:14;101104.50;;;5.76;100.00
27705;BME280;15109;50.992;6.918;2022-12-07T04:02:36;101094.22;;;5.79;100.00
27705;BME280;15109;50.992;6.918;2022-12-07T04:05:57;101097.09;;;5.78;100.00
27705;BME280;15109;50.992;6.918;2022-12-07T04:09:19;101097.91;;;5.78;100.00
27705;BME280;15109;50.992;6.918;2022-12-07T04:12:43;101091.06;;;5.74;100.00
27705;BME280;15109;50.992;6.918;2022-12-07T04:16:04;101092.94;;;5.74;100.00
27705;BME280;15109;50.992;6.918;2022-12-07T04:19:30;101093.66;;;5.76;100.00
27705;BME280;15109;50.992;6.918;2022-12-07T04:22:52;101102.66;;;5.76;100.00
27705;BME280;15109;50.992;6.918;2022-12-07T04:26:13;101099.22;;;5.74;100.00
27705;BME280;15109;50.992;6.918;2022-12-07T04:29:34;101095.63;;;5.74;100.00
27705;BME280;15109;50.992;6.918;2022-12-07T04:32:55;101090.38;;;5.72;100.00
27705;BME280;15109;50.992;6.918;2022-12-07T04:36:18;101083.09;;;5.73;100.00
27705;BME280;15109;50.992;6.918;2022-12-07T04:39:40;101088.53;;;5.73;100.00
27705;BME280;15109;50.992;6.918;2022-12-07T04:43:02;101086.66;;;5.73;100.00
27705;BME280;15109;50.992;6.918;2022-12-07T04:46:24;101088.53;;;5.73;100.00
27705;BME280;15109;50.992;6.918;2022-12-07T04:49:45;101088.97;;;5.68;100.00
27705;BME280;15109;50.992;6.918;2022-12-07T04:53:06;101095.38;;;5.67;100.00
27705;BME280;15109;50.992;6.918;2022-12-07T04:56:27;101101.66;;;5.68;100.00
27705;BME280;15109;50.992;6.918;2022-12-07T04:59:48;101092.66;;;5.67;100.00
27705;BME280;15109;50.992;6.918;2022-12-07T05:03:09;101091.50;;;5.70;100.00
27705;BME280;15109;50.992;6.918;2022-12-07T05:06:30;101082.53;;;5.69;100.00
27705;BME280;15109;50.992;6.918;2022-12-07T05:09:51;101090.94;;;5.66;100.00
27705;BME280;15109;50.992;6.918;2022-12-07T05:13:12;101092.53;;;5.69;100.00
27705;BME280;15109;50.992;6.918;2022-12-07T05:16:33;101091.25;;;5.73;100.00
27705;BME280;15109;50.992;6.918;2022-12-07T05:19:54;101089.09;;;5.76;100.00
27705;BME280;15109;50.992;6.918;2022-12-07T05:23:15;101090.94;;;5.76;100.00
27705;BME280;15109;50.992;6.918;2022-12-07T05:26:36;101085.94;;;5.71;100.00
27705;BME280;15109;50.992;6.918;2022-12-07T05:29:57;101092.38;;;5.70;100.00
27705;BME280;15109;50.992;6.918;2022-12-07T05:33:19;101102.66;;;5.67;100.00
27705;BME280;15109;50.992;6.918;2022-12-07T05:36:40;101100.25;;;5.64;100.00
27705;BME280;15109;50.992;6.918;2022-12-07T05:40:01;101094.66;;;5.65;100.00
27705;BME280;15109;50.992;6.918;2022-12-07T05:43:22;101090.94;;;5.66;100.00
27705;BME280;15109;50.992;6.918;2022-12-07T05:46:43;101082.25;;;5.63;100.00
27705;BME280;15109;50.992;6.918;2022-12-07T05:50:05;101078.69;;;5.53;100.00
27705;BME280;15109;50.992;6.918;2022-12-07T05:53:26;101077.16;;;5.50;100.00
27705;BME280;15109;50.992;6.918;2022-12-07T05:56:47;101079.84;;;5.50;100.00
27705;BME280;15109;50.992;6.918;2022-12-07T06:00:08;101089.16;;;5.47;100.00
27705;BME280;15109;50.992;6.918;2022-12-07T06:03:33;101085.84;;;5.44;100.00
27705;BME280;15109;50.992;6.918;2022-12-07T06:06:54;101093.84;;;5.36;100.00
27705;BME280;15109;50.992;6.918;2022-12-07T06:10:15;101084.03;;;5.35;100.00
27705;BME280;15109;50.992;6.918;2022-12-07T06:13:36;101079.44;;;5.35;100.00
27705;BME280;15109;50.992;6.918;2022-12-07T06:16:58;101089.28;;;5.27;100.00
27705;BME280;15109;50.992;6.918;2022-12-07T06:20:19;101088.47;;;5.26;100.00
27705;BME280;15109;50.992;6.918;2022-12-07T06:23:40;101099.00;;;5.20;100.00
27705;BME280;15109;50.992;6.918;2022-12-07T06:27:01;101089.59;;;5.24;100.00
27705;BME280;15109;50.992;6.918;2022-12-07T06:30:22;101081.03;;;5.28;100.00
27705;BME280;15109;50.992;6.918;2022-12-07T06:33:43;101087.72;;;5.24;100.00
27705;BME280;15109;50.992;6.918;2022-12-07T06:37:04;101094.31;;;5.22;100.00
27705;BME280;15109;50.992;6.918;2022-12-07T06:40:25;101101.16;;;5.26;100.00
27705;BME280;15109;50.992;6.918;2022-12-07T06:43:47;101101.72;;;5.29;100.00
27705;BME280;15109;50.992;6.918;2022-12-07T06:47:08;101108.88;;;5.30;100.00
27705;BME280;15109;50.992;6.918;2022-12-07T06:50:30;101108.56;;;5.33;100.00
27705;BME280;15109;50.992;6.918;2022-12-07T06:53:51;101118.97;;;5.38;100.00
27705;BME280;15109;50.992;6.918;2022-12-07T06:57:12;101112.84;;;5.36;100.00
27705;BME280;15109;50.992;6.918;2022-12-07T07:00:33;101110.13;;;5.45;100.00
27705;BME280;15109;50.992;6.918;2022-12-07T07:03:55;101105.81;;;5.53;100.00
27705;BME280;15109;50.992;6.918;2022-12-07T07:07:16;101111.28;;;5.43;100.00
27705;BME280;15109;50.992;6.918;2022-12-07T07:10:38;101111.72;;;5.38;100.00
27705;BME280;15109;50.992;6.918;2022-12-07T07:13:59;101118.56;;;5.42;100.00
27705;BME280;15109;50.992;6.918;2022-12-07T07:17:23;101097.72;;;5.43;100.00
27705;BME280;15109;50.992;6.918;2022-12-07T07:20:44;101114.00;;;5.43;100.00
27705;BME280;15109;50.992;6.918;2022-12-07T07:24:05;101116.69;;;5.43;100.00
27705;BME280;15109;50.992;6.918;2022-12-07T07:27:26;101109.00;;;5.38;100.00
27705;BME280;15109;50.992;6.918;2022-12-07T07:30:47;101106.97;;;5.40;100.00
27705;BME280;15109;50.992;6.918;2022-12-07T07:34:08;101115.13;;;5.31;100.00
27705;BME280;15109;50.992;6.918;2022-12-07T07:37:29;101110.28;;;5.25;100.00
27705;BME280;15109;50.992;6.918;2022-12-07T07:40:50;101111.16;;;5.35;100.00
27705;BME280;15109;50.992;6.918;2022-12-07T07:44:12;101123.81;;;5.44;100.00
27705;BME280;15109;50.992;6.918;2022-12-07T07:47:33;101117.38;;;5.55;100.00
27705;BME280;15109;50.992;6.918;2022-12-07T07:50:54;101109.38;;;5.53;100.00
27705;BME280;15109;50.992;6.918;2022-12-07T07:54:15;101109.13;;;5.56;100.00
27705;BME280;15109;50.992;6.918;2022-12-07T07:57:37;101112.66;;;5.57;100.00
27705;BME280;15109;50.992;6.918;2022-12-07T08:01:05;101110.53;;;5.60;100.00
27705;BME280;15109;50.992;6.918;2022-12-07T08:04:27;101116.53;;;5.64;100.00
27705;BME280;15109;50.992;6.918;2022-12-07T08:07:48;101123.25;;;5.60;100.00
27705;BME280;15109;50.992;6.918;2022-12-07T08:11:10;101122.25;;;5.61;100.00
27705;BME280;15109;50.992;6.918;2022-12-07T08:14:31;101116.22;;;5.57;100.00
27705;BME280;15109;50.992;6.918;2022-12-07T08:17:52;101123.81;;;5.63;100.00
27705;BME280;15109;50.992;6.918;2022-12-07T08:21:15;101122.50;;;5.67;100.00
27705;BME280;15109;50.992;6.918;2022-12-07T08:24:36;101119.78;;;5.77;100.00
27705;BME280;15109;50.992;6.918;2022-12-07T08:27:59;101120.91;;;5.74;100.00
27705;BME280;15109;50.992;6.918;2022-12-07T08:31:21;101127.06;;;5.67;100.00
27705;BME280;15109;50.992;6.918;2022-12-07T08:34:43;101128.06;;;5.66;100.00
27705;BME280;15109;50.992;6.918;2022-12-07T08:38:04;101135.50;;;5.73;100.00
27705;BME280;15109;50.992;6.918;2022-12-07T08:41:25;101133.59;;;5.83;100.00
27705;BME280;15109;50.992;6.918;2022-12-07T08:44:46;101133.94;;;5.90;100.00
27705;BME280;15109;50.992;6.918;2022-12-07T08:48:10;101130.59;;;5.96;100.00
27705;BME280;15109;50.992;6.918;2022-12-07T08:51:33;101132.63;;;5.94;100.00
27705;BME280;15109;50.992;6.918;2022-12-07T08:54:54;101133.91;;;6.00;100.00
27705;BME280;15109;50.992;6.918;2022-12-07T08:58:16;101139.03;;;6.03;100.00
27705;BME280;15109;50.992;6.918;2022-12-07T09:01:37;101130.59;;;5.96;100.00
27705;BME280;15109;50.992;6.918;2022-12-07T09:04:58;101130.91;;;6.03;100.00
27705;BME280;15109;50.992;6.918;2022-12-07T09:08:21;101120.72;;;6.05;100.00
27705;BME280;15109;50.992;6.918;2022-12-07T09:11:43;101129.47;;;6.08;100.00
27705;BME280;15109;50.992;6.918;2022-12-07T09:15:06;101140.00;;;6.11;100.00
27705;BME280;15109;50.992;6.918;2022-12-07T09:18:27;101123.13;;;6.17;100.00
27705;BME280;15109;50.992;6.918;2022-12-07T09:21:48;101137.28;;;6.21;100.00
27705;BME280;15109;50.992;6.918;2022-12-07T09:25:09;101135.56;;;6.20;100.00
27705;BME280;15109;50.992;6.918;2022-12-07T09:28:31;101135.13;;;6.15;100.00
27705;BME280;15109;50.992;6.918;2022-12-07T09:31:52;101136.69;;;6.17;100.00
27705;BME280;15109;50.992;6.918;2022-12-07T09:35:13;101132.72;;;6.12;100.00
27705;BME280;15109;50.992;6.918;2022-12-07T09:38:34;101134.56;;;6.21;100.00
27705;BME280;15109;50.992;6.918;2022-12-07T09:41:57;101128.06;;;6.31;100.00
27705;BME280;15109;50.992;6.918;2022-12-07T09:45:22;101128.72;;;6.43;100.00
27705;BME280;15109;50.992;6.918;2022-12-07T09:48:45;101140.72;;;6.50;100.00
27705;BME280;15109;50.992;6.918;2022-12-07T09:55:33;101138.28;;;6.74;100.00
27705;BME280;15109;50.992;6.918;2022-12-07T09:58:58;101136.66;;;6.64;100.00
27705;BME280;15109;50.992;6.918;2022-12-07T10:02:41;101125.47;;;6.67;100.00
27705;BME280;15109;50.992;6.918;2022-12-07T10:06:04;101116.91;;;6.62;100.00
27705;BME280;15109;50.992;6.918;2022-12-07T10:09:26;101115.84;;;6.45;100.00
27705;BME280;15109;50.992;6.918;2022-12-07T10:12:55;101115.66;;;6.56;100.00
27705;BME280;15109;50.992;6.918;2022-12-07T10:16:35;101110.22;;;6.56;100.00
27705;BME280;15109;50.992;6.918;2022-12-07T10:23:35;101114.06;;;6.63;100.00
27705;BME280;15109;50.992;6.918;2022-12-07T10:26:57;101106.44;;;6.67;100.00
27705;BME280;15109;50.992;6.918;2022-12-07T10:30:18;101102.38;;;6.80;100.00
27705;BME280;15109;50.992;6.918;2022-12-07T10:40:35;101098.66;;;6.81;100.00
27705;BME280;15109;50.992;6.918;2022-12-07T10:43:57;101100.03;;;6.86;100.00
27705;BME280;15109;50.992;6.918;2022-12-07T10:47:46;101098.00;;;6.88;100.00
27705;BME280;15109;50.992;6.918;2022-12-07T10:54:58;101087.69;;;6.91;100.00
27705;BME280;15109;50.992;6.918;2022-12-07T11:13:04;101054.53;;;7.05;100.00
27705;BME280;15109;50.992;6.918;2022-12-07T11:24:17;101047.53;;;7.20;100.00
27705;BME280;15109;50.992;6.918;2022-12-07T11:38:52;101031.13;;;7.12;100.00
27705;BME280;15109;50.992;6.918;2022-12-07T11:42:22;101019.72;;;7.09;100.00
27705;BME280;15109;50.992;6.918;2022-12-07T11:45:50;101028.97;;;6.98;100.00
27705;BME280;15109;50.992;6.918;2022-12-07T11:49:24;101027.88;;;6.91;100.00
27705;BME280;15109;50.992;6.918;2022-12-07T11:52:57;101032.72;;;6.97;100.00
27705;BME280;15109;50.992;6.918;2022-12-07T11:56:25;101024.75;;;7.04;100.00
27705;BME280;15109;50.992;6.918;2022-12-07T11:59:53;101014.94;;;7.03;100.00
27705;BME280;15109;50.992;6.918;2022-12-07T12:03:25;101020.03;;;7.06;100.00
27705;BME280;15109;50.992;6.918;2022-12-07T12:06:51;101014.13;;;7.10;100.00
27705;BME280;15109;50.992;6.918;2022-12-07T12:10:19;101019.16;;;7.23;100.00
27705;BME280;15109;50.992;6.918;2022-12-07T12:14:12;101017.63;;;7.20;100.00
27705;BME280;15109;50.992;6.918;2022-12-07T12:21:30;101013.66;;;7.15;100.00
27705;BME280;15109;50.992;6.918;2022-12-07T12:24:53;101005.81;;;7.12;100.00
27705;BME280;15109;50.992;6.918;2022-12-07T12:28:39;101010.28;;;7.21;100.00
27705;BME280;15109;50.992;6.918;2022-12-07T13:18:51;100972.31;;;6.86;100.00
27705;BME280;15109;50.992;6.918;2022-12-07T13:22:47;100977.41;;;6.89;100.00
27705;BME280;15109;50.992;6.918;2022-12-07T13:29:36;100966.13;;;7.01;100.00
27705;BME280;15109;50.992;6.918;2022-12-07T13:32:59;100961.09;;;7.06;100.00
27705;BME280;15109;50.992;6.918;2022-12-07T13:36:23;100950.03;;;7.08;100.00
27705;BME280;15109;50.992;6.918;2022-12-07T13:39:52;100953.13;;;7.13;100.00
27705;BME280;15109;50.992;6.918;2022-12-07T13:43:16;100950.25;;;7.14;100.00
27705;BME280;15109;50.992;6.918;2022-12-07T13:50:29;100947.59;;;7.22;100.00
27705;BME280;15109;50.992;6.918;2022-12-07T13:53:56;100937.25;;;7.26;100.00
27705;BME280;15109;50.992;6.918;2022-12-07T13:57:20;100939.28;;;7.24;100.00
27705;BME280;15109;50.992;6.918;2022-12-07T14:00:41;100944.97;;;7.13;100.00
27705;BME280;15109;50.992;6.918;2022-12-07T14:11:30;100934.91;;;7.05;100.00
27705;BME280;15109;50.992;6.918;2022-12-07T14:14:52;100929.06;;;7.00;100.00
27705;BME280;15109;50.992;6.918;2022-12-07T14:18:28;100919.88;;;6.93;100.00
27705;BME280;15109;50.992;6.918;2022-12-07T14:22:06;100926.16;;;6.94;100.00
27705;BME280;15109;50.992;6.918;2022-12-07T14:25:27;100922.91;;;6.90;100.00
27705;BME280;15109;50.992;6.918;2022-12-07T14:28:48;100914.44;;;6.93;100.00
27705;BME280;15109;50.992;6.918;2022-12-07T14:35:45;100915.44;;;6.92;100.00
27705;BME280;15109;50.992;6.918;2022-12-07T14:39:06;100908.81;;;6.95;100.00
27705;BME280;15109;50.992;6.918;2022-12-07T14:42:28;100905.28;;;6.94;100.00
27705;BME280;15109;50.992;6.918;2022-12-07T14:45:50;100889.25;;;6.91;100.00
27705;BME280;15109;50.992;6.918;2022-12-07T14:49:11;100895.50;;;6.83;100.00
27705;BME280;15109;50.992;6.918;2022-12-07T14:52:32;100896.34;;;6.84;100.00
27705;BME280;15109;50.992;6.918;2022-12-07T14:55:54;100895.63;;;6.82;100.00
27705;BME280;15109;50.992;6.918;2022-12-07T14:59:16;100887.81;;;6.79;100.00
27705;BME280;15109;50.992;6.918;2022-12-07T15:02:37;100886.94;;;6.78;100.00
27705;BME280;15109;50.992;6.918;2022-12-07T15:05:58;100879.66;;;6.79;100.00
27705;BME280;15109;50.992;6.918;2022-12-07T15:09:19;100887.81;;;6.79;100.00
27705;BME280;15109;50.992;6.918;2022-12-07T15:12:40;100888.28;;;6.74;100.00
27705;BME280;15109;50.992;6.918;2022-12-07T15:16:01;100886.25;;;6.51;100.00
27705;BME280;15109;50.992;6.918;2022-12-07T15:19:23;100894.69;;;6.48;100.00
27705;BME280;15109;50.992;6.918;2022-12-07T15:22:46;100893.06;;;6.37;100.00
27705;BME280;15109;50.992;6.918;2022-12-07T15:26:09;100889.03;;;6.23;100.00
27705;BME280;15109;50.992;6.918;2022-12-07T15:29:30;100898.22;;;6.13;100.00
27705;BME280;15109;50.992;6.918;2022-12-07T15:32:52;100885.38;;;6.15;100.00
27705;BME280;15109;50.992;6.918;2022-12-07T15:36:25;100885.97;;;6.09;100.00
27705;BME280;15109;50.992;6.918;2022-12-07T15:39:47;100876.63;;;6.03;100.00
27705;BME280;15109;50.992;6.918;2022-12-07T15:43:09;100878.94;;;5.98;100.00
27705;BME280;15109;50.992;6.918;2022-12-07T15:46:50;100878.00;;;5.80;100.00
27705;BME280;15109;50.992;6.918;2022-12-07T15:50:14;100876.66;;;5.66;100.00
27705;BME280;15109;50.992;6.918;2022-12-07T15:53:36;100871.13;;;5.58;100.00
27705;BME280;15109;50.992;6.918;2022-12-07T15:56:57;100874.28;;;5.54;100.00
27705;BME280;15109;50.992;6.918;2022-12-07T16:00:18;100867.91;;;5.45;100.00
27705;BME280;15109;50.992;6.918;2022-12-07T16:03:40;100856.72;;;5.30;100.00
27705;BME280;15109;50.992;6.918;2022-12-07T16:11:43;100871.41;;;5.28;100.00
27705;BME280;15109;50.992;6.918;2022-12-07T16:15:05;100868.03;;;5.26;100.00
27705;BME280;15109;50.992;6.918;2022-12-07T16:18:26;100860.75;;;5.26;100.00
27705;BME280;15109;50.992;6.918;2022-12-07T16:21:47;100865.84;;;5.29;100.00
27705;BME280;15109;50.992;6.918;2022-12-07T16:25:08;100857.13;;;5.35;100.00
27705;BME280;15109;50.992;6.918;2022-12-07T16:28:29;100865.66;;;5.40;100.00
27705;BME280;15109;50.992;6.918;2022-12-07T16:31:51;100867.06;;;5.44;100.00
27705;BME280;15109;50.992;6.918;2022-12-07T16:35:13;100857.06;;;5.45;100.00
27705;BME280;15109;50.992;6.918;2022-12-07T16:38:34;100858.34;;;5.51;100.00
27705;BME280;15109;50.992;6.918;2022-12-07T16:41:56;100861.03;;;5.51;100.00
27705;BME280;15109;50.992;6.918;2022-12-07T16:45:17;100859.97;;;5.61;100.00
27705;BME280;15109;50.992;6.918;2022-12-07T16:48:41;100847.28;;;5.62;100.00
27705;BME280;15109;50.992;6.918;2022-12-07T16:52:02;100857.84;;;5.65;100.00
27705;BME280;15109;50.992;6.918;2022-12-07T16:55:29;100857.53;;;5.68;100.00
27705;BME280;15109;50.992;6.918;2022-12-07T16:58:50;100850.69;;;5.64;100.00
27705;BME280;15109;50.992;6.918;2022-12-07T17:02:11;100843.25;;;5.66;100.00
27705;BME280;15109;50.992;6.918;2022-12-07T17:05:33;100845.81;;;5.67;100.00
27705;BME280;15109;50.992;6.918;2022-12-07T17:08:57;100835.38;;;5.72;100.00
27705;BME280;15109;50.992;6.918;2022-12-07T17:12:22;100838.06;;;5.72;100.00
27705;BME280;15109;50.992;6.918;2022-12-07T17:15:43;100842.34;;;5.75;100.00
27705;BME280;15109;50.992;6.918;2022-12-07T17:19:09;100834.19;;;5.75;100.00
27705;BME280;15109;50.992;6.918;2022-12-07T17:22:31;100829.94;;;5.72;100.00
27705;BME280;15109;50.992;6.918;2022-12-07T17:25:54;100837.44;;;5.78;100.00
27705;BME280;15109;50.992;6.918;2022-12-07T17:29:19;100831.88;;;5.80;100.00
27705;BME280;15109;50.992;6.918;2022-12-07T17:32:40;100826.91;;;5.75;100.00
27705;BME280;15109;50.992;6.918;2022-12-07T17:39:44;100811.81;;;5.73;100.00
27705;BME280;15109;50.992;6.918;2022-12-07T17:43:10;100818.22;;;5.72;100.00
27705;BME280;15109;50.992;6.918;2022-12-07T17:46:38;100812.34;;;5.76;100.00
27705;BME280;15109;50.992;6.918;2022-12-07T17:50:06;100806.78;;;5.78;100.00
27705;BME280;15109;50.992;6.918;2022-12-07T17:53:30;100807.47;;;5.80;100.00
27705;BME280;15109;50.992;6.918;2022-12-07T17:56:51;100802.56;;;5.83;100.00
27705;BME280;15109;50.992;6.918;2022-12-07T18:00:15;100806.56;;;5.89;100.00
27705;BME280;15109;50.992;6.918;2022-12-07T18:03:39;100792.00;;;5.90;100.00
27705;BME280;15109;50.992;6.918;2022-12-07T18:07:05;100798.97;;;5.92;100.00
27705;BME280;15109;50.992;6.918;2022-12-07T18:10:29;100797.13;;;5.93;100.00
27705;BME280;15109;50.992;6.918;2022-12-07T18:13:50;100786.78;;;5.97;100.00
27705;BME280;15109;50.992;6.918;2022-12-07T18:17:15;100781.84;;;5.92;100.00
27705;BME280;15109;50.992;6.918;2022-12-07T18:20:36;100782.53;;;5.94;100.00
27705;BME280;15109;50.992;6.918;2022-12-07T18:24:02;100783.00;;;5.89;100.00
27705;BME280;15109;50.992;6.918;2022-12-07T18:27:29;100777.13;;;5.94;100.00
27705;BME280;15109;50.992;6.918;2022-12-07T18:30:50;100778.84;;;5.95;100.00
27705;BME280;15109;50.992;6.918;2022-12-07T18:34:16;100769.66;;;5.96;100.00
27705;BME280;15109;50.992;6.918;2022-12-07T18:37:37;100780.38;;;5.98;100.00
27705;BME280;15109;50.992;6.918;2022-12-07T18:41:00;100777.34;;;6.01;100.00
27705;BME280;15109;50.992;6.918;2022-12-07T18:44:21;100777.19;;;6.02;100.00
27705;BME280;15109;50.992;6.918;2022-12-07T18:47:42;100771.44;;;6.05;100.00
27705;BME280;15109;50.992;6.918;2022-12-07T18:51:05;100769.72;;;6.04;100.00
27705;BME280;15109;50.992;6.918;2022-12-07T18:54:27;100772.28;;;6.06;100.00
27705;BME280;15109;50.992;6.918;2022-12-07T18:57:48;100769.19;;;6.01;100.00
27705;BME280;15109;50.992;6.918;2022-12-07T19:01:09;100767.13;;;5.95;100.00
27705;BME280;15109;50.992;6.918;2022-12-07T19:04:30;100765.41;;;5.93;100.00
27705;BME280;15109;50.992;6.918;2022-12-07T19:07:54;100765.41;;;5.93;100.00
27705;BME280;15109;50.992;6.918;2022-12-07T19:11:26;100767.13;;;5.95;100.00
27705;BME280;15109;50.992;6.918;2022-12-07T19:15:08;100758.28;;;5.92;100.00
27705;BME280;15109;50.992;6.918;2022-12-07T19:18:29;100763.00;;;5.90;100.00
27705;BME280;15109;50.992;6.918;2022-12-07T19:21:50;100751.44;;;5.88;100.00
27705;BME280;15109;50.992;6.918;2022-12-07T19:25:14;100758.16;;;5.84;100.00
27705;BME280;15109;50.992;6.918;2022-12-07T19:28:35;100755.91;;;5.80;100.00
27705;BME280;15109;50.992;6.918;2022-12-07T19:32:05;100752.44;;;5.87;100.00
27705;BME280;15109;50.992;6.918;2022-12-07T19:35:28;100751.88;;;5.84;100.00
27705;BME280;15109;50.992;6.918;2022-12-07T19:38:50;100741.75;;;5.86;100.00
27705;BME280;15109;50.992;6.918;2022-12-07T19:42:11;100736.31;;;5.86;100.00
27705;BME280;15109;50.992;6.918;2022-12-07T19:45:35;100740.03;;;5.85;100.00
27705;BME280;15109;50.992;6.918;2022-12-07T19:48:56;100738.78;;;5.79;100.00
27705;BME280;15109;50.992;6.918;2022-12-07T19:52:18;100742.66;;;5.77;100.00
27705;BME280;15109;50.992;6.918;2022-12-07T19:55:40;100741.97;;;5.75;100.00
27705;BME280;15109;50.992;6.918;2022-12-07T19:59:01;100742.41;;;5.70;100.00
27705;BME280;15109;50.992;6.918;2022-12-07T20:02:23;100734.28;;;5.70;100.00
27705;BME280;15109;50.992;6.918;2022-12-07T20:05:45;100728.47;;;5.65;100.00
27705;BME280;15109;50.992;6.918;2022-12-07T20:09:09;100737.47;;;5.66;100.00
27705;BME280;15109;50.992;6.918;2022-12-07T20:12:36;100731.81;;;5.59;100.00
27705;BME280;15109;50.992;6.918;2022-12-07T20:16:19;100726.59;;;5.48;100.00
27705;BME280;15109;50.992;6.918;2022-12-07T20:19:49;100727.22;;;5.42;100.00